DTTF/GAF METAR and TAF weather

Enter ICAO airport designator
Station Type Date Time Source
DTTF METAR 2019/08/25 17:00 UTC NOAA

DTTF 251700Z 14013KT 8000 SCT026TCU FEW030CB 34/13 Q1011


Station Type Date Time Source
DTTF Decoded METAR 2019/08/25 17:00 UTC NOAA

Station name not available
Aug 25, 2019 - 01:00 PM EDT / 2019.08.25 1700 UTC
Wind: from the SE (140 degrees) at 15 MPH (13 KT):0
Visibility: 4 mile(s):0
Sky conditions: partly cloudy
Weather: Cumulonimbus clouds, towering cumulus clouds observed
Temperature: 93 F (34 C)
Dew Point: 55 F (13 C)
Relative Humidity: 28%
Pressure (altimeter): 29.85 in. Hg (1011 hPa)
ob: DTTF 251700Z 14013KT 8000 SCT026TCU FEW030CB 34/13 Q1011
cycle: 17

Station Type Date Time Source
DTTF TAF 2018/07/22 13:33 UTC NOAA

TAF DTTF 221200Z 2213/2322 22010KT 7000 NSC PROB30
TEMPO 2216/2220 4000 -TSRA FEW026CB

Example: see airport list